createdAt,value
2023-05-06T12:06:19.041Z,100.00
2023-05-06T12:09:22.160Z,100.00
2023-05-06T12:12:24.432Z,100.00
2023-05-06T12:15:26.241Z,100.00
2023-05-06T12:18:28.021Z,100.00
2023-05-06T12:21:30.513Z,100.00
2023-05-06T12:24:31.905Z,100.00
2023-05-06T12:27:34.961Z,96.03
2023-05-06T12:30:36.505Z,100.00
2023-05-06T12:33:46.055Z,94.61
2023-05-06T12:36:47.717Z,100.00
2023-05-06T12:39:49.234Z,87.40
2023-05-06T12:42:54.605Z,90.46
2023-05-06T12:46:04.804Z,85.86
2023-05-06T12:49:06.257Z,82.50
2023-05-06T12:52:09.853Z,84.17
2023-05-06T12:55:11.245Z,87.34
2023-05-06T12:58:16.842Z,92.38
2023-05-06T13:01:21.964Z,94.98
2023-05-06T13:04:23.531Z,92.80
2023-05-06T13:07:25.178Z,91.18
2023-05-06T13:10:26.703Z,91.36
2023-05-06T13:13:28.595Z,95.49
2023-05-06T13:16:32.174Z,93.21
2023-05-06T13:19:33.788Z,98.11
2023-05-06T13:22:46.968Z,92.67
2023-05-06T13:26:04.287Z,93.07
2023-05-06T13:29:06.836Z,95.68
2023-05-06T13:32:09.149Z,88.56
2023-05-06T13:35:10.941Z,94.36
2023-05-06T13:38:12.525Z,89.53
2023-05-06T13:41:13.905Z,96.54
2023-05-06T13:44:21.912Z,97.05
2023-05-06T13:47:23.698Z,83.51
2023-05-06T13:50:25.106Z,80.43
2023-05-06T13:53:26.579Z,80.86
2023-05-06T13:56:28.156Z,92.21
2023-05-06T13:59:29.637Z,86.22
2023-05-06T14:02:31.543Z,79.30
2023-05-06T14:05:33.061Z,80.35
2023-05-06T14:08:34.526Z,78.55
2023-05-06T14:11:36.020Z,75.40
2023-05-06T14:14:37.601Z,78.00
2023-05-06T14:17:39.062Z,77.58
2023-05-06T14:20:40.981Z,82.36
2023-05-06T14:23:42.431Z,75.67
2023-05-06T14:26:45.908Z,71.33
2023-05-06T14:29:47.492Z,74.33
2023-05-06T14:32:49.190Z,75.60
2023-05-06T14:35:52.588Z,71.53
2023-05-06T14:38:54.066Z,82.03
2023-05-06T14:41:55.583Z,69.97
2023-05-06T14:44:57.007Z,77.50
2023-05-06T14:47:58.588Z,72.08
2023-05-06T14:51:00.077Z,77.42
2023-05-06T14:54:01.620Z,73.09
2023-05-06T14:57:03.870Z,73.64
2023-05-06T15:00:09.829Z,73.72
2023-05-06T15:03:12.349Z,75.16
2023-05-06T15:06:13.747Z,67.36
2023-05-06T15:09:15.254Z,72.74
2023-05-06T15:12:16.711Z,69.93
2023-05-06T15:15:18.609Z,62.27
2023-05-06T15:18:20.062Z,63.84
2023-05-06T15:21:23.953Z,69.05
2023-05-06T15:24:26.069Z,66.30
2023-05-06T15:27:27.496Z,70.32
2023-05-06T15:30:28.972Z,72.62
2023-05-06T15:33:30.464Z,68.80
2023-05-06T15:36:31.962Z,70.39
2023-05-06T15:39:39.527Z,76.25
2023-05-06T15:42:41.047Z,68.45
2023-05-06T15:45:42.647Z,73.58
2023-05-06T15:48:44.352Z,70.08
2023-05-06T15:51:45.805Z,69.48
2023-05-06T15:54:49.856Z,76.39
2023-05-06T15:57:53.504Z,70.20
2023-05-06T16:00:54.954Z,75.13
2023-05-06T16:03:56.471Z,71.25
2023-05-06T16:06:58.114Z,78.85
2023-05-06T16:09:59.714Z,71.59
2023-05-06T16:13:01.357Z,78.11
2023-05-06T16:16:02.898Z,67.63
2023-05-06T16:19:04.586Z,66.25
2023-05-06T16:22:05.987Z,69.15
2023-05-06T16:25:07.840Z,70.46
2023-05-06T16:28:09.493Z,68.50
2023-05-06T16:31:11.009Z,68.53
2023-05-06T16:34:12.608Z,70.05
2023-05-06T16:37:15.621Z,69.30
2023-05-06T16:40:20.536Z,75.89
2023-05-06T16:43:22.075Z,72.20
2023-05-06T16:46:24.688Z,72.19
2023-05-06T16:49:27.836Z,71.95
2023-05-06T16:52:30.769Z,72.18
2023-05-06T16:55:32.472Z,84.09
2023-05-06T16:58:34.141Z,78.17
2023-05-06T17:01:35.735Z,84.89
2023-05-06T17:04:37.616Z,86.55
2023-05-06T17:07:39.155Z,86.89
2023-05-06T17:10:40.749Z,91.91
2023-05-06T17:13:42.223Z,91.49
2023-05-06T17:16:43.795Z,96.03
2023-05-06T17:19:45.385Z,93.42
2023-05-06T17:22:46.927Z,100.00
2023-05-06T17:25:48.497Z,98.44
2023-05-06T17:28:50.910Z,90.07
2023-05-06T17:31:54.117Z,98.04
2023-05-06T17:34:55.939Z,92.13
2023-05-06T17:37:58.476Z,87.42
2023-05-06T17:40:59.862Z,92.23
2023-05-06T17:44:01.369Z,89.37
2023-05-06T17:47:02.764Z,93.21
2023-05-06T17:50:04.860Z,87.44
2023-05-06T17:53:06.482Z,91.76
2023-05-06T17:56:07.945Z,86.82
2023-05-06T17:59:09.436Z,92.23
2023-05-06T18:02:15.904Z,92.47
2023-05-06T18:05:21.159Z,91.77
2023-05-06T18:08:22.843Z,94.11
2023-05-06T18:11:27.547Z,89.80
2023-05-06T18:14:30.819Z,95.46
2023-05-06T18:17:32.332Z,95.60
2023-05-06T18:20:34.129Z,97.23
2023-05-06T18:23:37.105Z,100.00
2023-05-06T18:26:44.101Z,100.00
2023-05-06T18:29:47.589Z,100.00
2023-05-06T18:32:51.010Z,100.00
2023-05-06T18:35:52.867Z,100.00
2023-05-06T18:38:56.747Z,100.00
2023-05-06T18:41:58.367Z,100.00
2023-05-06T18:45:00.427Z,100.00
2023-05-06T18:48:01.888Z,100.00
2023-05-06T18:51:13.939Z,100.00
2023-05-06T18:54:16.347Z,100.00
2023-05-06T18:57:19.541Z,100.00
2023-05-06T19:00:22.359Z,100.00
2023-05-06T19:03:23.774Z,100.00
2023-05-06T19:06:25.395Z,100.00
2023-05-06T19:09:27.039Z,100.00
2023-05-06T19:12:29.772Z,100.00
2023-05-06T19:15:31.246Z,100.00
2023-05-06T19:18:32.761Z,100.00
2023-05-06T19:21:34.760Z,100.00
2023-05-06T19:24:36.281Z,100.00
2023-05-06T19:27:37.764Z,100.00
2023-05-06T19:30:39.233Z,100.00
2023-05-06T19:33:43.055Z,100.00
2023-05-06T19:36:44.942Z,100.00
2023-05-06T19:39:47.501Z,100.00
2023-05-06T19:42:49.042Z,100.00
2023-05-06T19:45:50.574Z,100.00
2023-05-06T19:48:52.343Z,100.00
2023-05-06T19:51:53.726Z,100.00
2023-05-06T19:54:56.734Z,100.00
2023-05-06T19:57:59.058Z,100.00
2023-05-06T20:01:00.555Z,100.00
2023-05-06T20:04:02.377Z,100.00
2023-05-06T20:07:04.005Z,100.00
2023-05-06T20:10:07.847Z,100.00
2023-05-06T20:13:11.703Z,100.00
2023-05-06T20:16:13.251Z,100.00
2023-05-06T20:19:15.198Z,100.00
2023-05-06T20:22:16.643Z,100.00
2023-05-06T20:25:18.540Z,100.00
2023-05-06T20:28:21.311Z,100.00
2023-05-06T20:31:24.397Z,100.00
2023-05-06T20:34:26.234Z,100.00
2023-05-06T20:37:30.595Z,100.00
2023-05-06T20:40:35.389Z,100.00
2023-05-06T20:43:36.772Z,100.00
2023-05-06T20:46:38.210Z,100.00
2023-05-06T20:49:39.676Z,100.00
2023-05-06T20:52:41.541Z,100.00
2023-05-06T20:55:43.016Z,100.00
2023-05-06T20:58:44.477Z,100.00
2023-05-06T21:01:46.112Z,100.00
2023-05-06T21:04:47.661Z,100.00
2023-05-06T21:07:52.988Z,100.00
2023-05-06T21:11:02.078Z,100.00
2023-05-06T21:14:03.788Z,100.00
2023-05-06T21:17:05.708Z,100.00
2023-05-06T21:23:26.478Z,100.00
2023-05-06T21:26:31.023Z,100.00
2023-05-06T21:29:32.728Z,100.00
2023-05-06T21:32:34.418Z,100.00
2023-05-06T21:35:36.177Z,100.00
2023-05-06T21:38:37.727Z,100.00
2023-05-06T21:41:40.106Z,100.00
2023-05-06T21:44:41.640Z,100.00
2023-05-06T21:47:44.526Z,100.00
2023-05-06T21:50:46.498Z,100.00
2023-05-06T21:53:57.131Z,100.00
2023-05-06T21:56:58.596Z,100.00
2023-05-06T22:00:00.203Z,100.00
2023-05-06T22:03:02.061Z,100.00
2023-05-06T22:06:04.702Z,100.00
2023-05-06T22:09:09.447Z,100.00
2023-05-06T22:12:12.946Z,100.00
2023-05-06T22:15:15.547Z,100.00
2023-05-06T22:18:18.041Z,100.00
2023-05-06T22:21:20.226Z,100.00
2023-05-06T22:24:22.392Z,100.00
2023-05-06T22:27:24.094Z,100.00
2023-05-06T22:30:25.753Z,100.00
2023-05-06T22:33:27.356Z,100.00
2023-05-06T22:36:29.912Z,100.00
2023-05-06T22:39:31.350Z,100.00
2023-05-06T22:42:32.922Z,100.00
2023-05-06T22:45:34.408Z,100.00
2023-05-06T22:48:36.017Z,100.00
2023-05-06T22:51:37.509Z,100.00
2023-05-06T22:54:39.120Z,100.00
2023-05-06T22:57:40.680Z,100.00
2023-05-06T23:00:43.234Z,100.00
2023-05-06T23:03:44.772Z,100.00
2023-05-06T23:06:46.375Z,100.00
2023-05-06T23:09:48.023Z,100.00
2023-05-06T23:12:49.531Z,100.00
2023-05-06T23:15:51.012Z,100.00
2023-05-06T23:18:54.769Z,100.00
2023-05-06T23:21:56.397Z,100.00
2023-05-06T23:24:57.839Z,100.00
2023-05-06T23:27:59.292Z,100.00
2023-05-06T23:31:00.818Z,100.00
2023-05-06T23:34:02.578Z,100.00
2023-05-06T23:37:04.040Z,100.00
2023-05-06T23:40:06.125Z,100.00
2023-05-06T23:43:09.733Z,100.00
2023-05-06T23:46:11.369Z,100.00
2023-05-06T23:49:13.018Z,100.00
2023-05-06T23:52:14.451Z,100.00
2023-05-06T23:55:15.988Z,100.00
2023-05-06T23:58:17.498Z,100.00
